Time;durP1;ratioP1;P1;durP2;ratioP2;P2;SDS_P1;SDS_P2;PMS_P1;PMS_P2;Temp;Humidity;BMP_temperature;BMP_pressure;BME280_temperature;BME280_humidity;BME280_pressure;Samples;Min_cycle;Max_cycle;Signal;HPM_P1;HPM_P2
2023/04/27 00:01:43;;;;;;;9.50;5.25;;;;;;;3.24;77.36;101954.44;4999190;28;20466;-71
2023/04/27 00:04:10;;;;;;;10.02;5.40;;;;;;;3.16;77.52;101958.63;5005450;28;20051;-70
2023/04/27 00:06:37;;;;;;;11.55;5.35;;;;;;;3.08;77.59;101947.19;4985105;28;20038;-72
2023/04/27 00:09:05;;;;;;;6.93;4.85;;;;;;;3.00;77.40;101949.63;5004641;28;20035;-72
2023/04/27 00:11:32;;;;;;;7.78;5.63;;;;;;;2.92;77.18;101956.44;4999228;28;20057;-72
2023/04/27 00:13:59;;;;;;;7.68;5.22;;;;;;;2.83;77.24;101951.94;5015285;28;20454;-73
2023/04/27 00:16:26;;;;;;;8.35;5.32;;;;;;;2.77;77.65;101962.22;5001613;28;20116;-71
2023/04/27 00:18:53;;;;;;;9.48;5.53;;;;;;;2.72;77.58;101963.88;4989739;28;20946;-71
2023/04/27 00:21:20;;;;;;;10.18;5.50;;;;;;;2.66;77.55;101967.22;5004986;28;20554;-71
2023/04/27 00:23:47;;;;;;;7.90;5.20;;;;;;;2.60;77.61;101972.28;5000229;28;20050;-72
2023/04/27 00:26:14;;;;;;;7.70;5.22;;;;;;;2.54;77.87;101966.97;5000433;28;20047;-71
2023/04/27 00:28:44;;;;;;;9.55;5.50;;;;;;;2.51;78.44;101966.88;5012339;28;20046;-73
2023/04/27 00:31:11;;;;;;;9.13;5.55;;;;;;;2.54;79.08;101978.28;5007732;28;20047;-71
2023/04/27 00:33:38;;;;;;;9.88;5.18;;;;;;;2.60;79.58;101978.38;4998611;28;20101;-71
2023/04/27 00:36:06;;;;;;;9.18;5.60;;;;;;;2.62;79.66;101975.81;4999783;28;20065;-72
2023/04/27 00:38:33;;;;;;;11.20;6.03;;;;;;;2.62;79.92;101970.59;4996062;28;20810;-71
2023/04/27 00:41:07;;;;;;;8.65;5.72;;;;;;;2.63;80.39;101965.44;5008304;28;20450;-71
2023/04/27 00:43:45;;;;;;;8.25;5.38;;;;;;;2.62;80.43;101971.50;5007808;28;20491;-72
2023/04/27 00:46:13;;;;;;;9.27;5.55;;;;;;;2.58;80.29;101972.28;4988502;28;20180;-71
2023/04/27 00:48:41;;;;;;;9.50;5.55;;;;;;;2.53;80.42;101967.81;5007599;28;20054;-72
2023/04/27 00:51:09;;;;;;;8.68;5.50;;;;;;;2.49;80.48;101975.53;5003862;28;20035;-71
2023/04/27 00:53:37;;;;;;;7.35;5.25;;;;;;;2.45;80.40;101968.53;4992083;28;20117;-71
2023/04/27 00:56:06;;;;;;;10.48;5.32;;;;;;;2.42;80.60;101968.47;4990670;28;20137;-71
2023/04/27 00:58:33;;;;;;;9.95;5.40;;;;;;;2.38;80.78;101964.06;5005633;28;20053;-71
2023/04/27 01:01:01;;;;;;;9.32;5.70;;;;;;;2.38;80.99;101971.84;5007413;28;20526;-72
2023/04/27 01:03:29;;;;;;;11.82;5.82;;;;;;;2.35;81.21;101971.78;5008919;28;20030;-72
2023/04/27 01:06:00;;;;;;;8.70;5.57;;;;;;;2.33;81.34;101969.16;5021400;28;20069;-72
2023/04/27 01:08:28;;;;;;;10.60;5.43;;;;;;;2.32;81.40;101971.69;5018358;28;20121;-71
2023/04/27 01:10:55;;;;;;;13.73;5.65;;;;;;;2.29;81.30;101969.06;4999619;28;20050;-71
2023/04/27 01:13:22;;;;;;;9.02;5.90;;;;;;;2.28;81.36;101965.56;5000462;28;20973;-71
2023/04/27 01:15:49;;;;;;;11.73;5.88;;;;;;;2.26;81.83;101963.78;5008276;28;20057;-71
2023/04/27 01:18:16;;;;;;;9.82;5.93;;;;;;;2.22;81.75;101974.94;4997911;28;20045;-72
2023/04/27 01:20:43;;;;;;;10.20;5.82;;;;;;;2.18;81.67;101968.81;4996263;28;20159;-71
2023/04/27 01:23:14;;;;;;;7.63;5.15;;;;;;;2.12;81.60;101974.75;4997707;28;20039;-72
2023/04/27 01:25:43;;;;;;;8.52;5.57;;;;;;;2.03;81.47;101969.34;4999450;28;20596;-72
2023/04/27 01:28:11;;;;;;;8.15;4.85;;;;;;;1.95;81.29;101971.75;4999357;28;20042;-71
2023/04/27 01:30:38;;;;;;;10.10;5.43;;;;;;;1.90;81.71;101972.47;4994973;28;20517;-71
2023/04/27 01:33:05;;;;;;;9.30;5.50;;;;;;;1.89;82.11;101975.91;4995852;28;20047;-71
2023/04/27 01:35:32;;;;;;;9.25;5.68;;;;;;;1.85;82.53;101978.47;5012379;28;20031;-70
2023/04/27 01:38:00;;;;;;;13.13;6.65;;;;;;;1.84;83.11;101979.31;4998027;28;20049;-70
2023/04/27 01:40:27;;;;;;;9.88;5.57;;;;;;;1.83;83.53;101977.53;4998716;28;20042;-73
2023/04/27 01:42:54;;;;;;;8.18;5.15;;;;;;;1.79;83.45;101978.31;5014676;28;20045;-70
2023/04/27 01:45:22;;;;;;;8.85;5.80;;;;;;;1.75;83.63;101973.88;4999927;28;20109;-70
2023/04/27 01:47:52;;;;;;;8.70;5.80;;;;;;;1.73;83.90;101978.16;4998039;28;20081;-70
2023/04/27 01:50:20;;;;;;;9.30;6.10;;;;;;;1.70;83.93;101975.47;5012301;28;20058;-70
2023/04/27 01:52:47;;;;;;;9.90;5.80;;;;;;;1.68;84.03;101975.44;4997792;28;20883;-70
2023/04/27 01:55:14;;;;;;;11.93;6.25;;;;;;;1.65;83.89;101977.97;5013655;28;20621;-70
2023/04/27 01:57:41;;;;;;;9.88;5.82;;;;;;;1.63;83.78;101974.44;4996425;28;20039;-71
2023/04/27 02:00:09;;;;;;;10.95;5.88;;;;;;;1.62;84.13;101974.41;4996711;28;20118;-72
2023/04/27 02:02:52;;;;;;;8.75;5.85;;;;;;;1.59;84.02;101974.31;4997224;28;20114;-71
2023/04/27 02:05:19;;;;;;;10.73;5.80;;;;;;;1.59;84.16;101972.63;5000697;28;20531;-71
2023/04/27 02:07:48;;;;;;;11.82;6.50;;;;;;;1.56;84.31;101972.53;5018268;28;20113;-71
2023/04/27 02:10:15;;;;;;;10.63;5.82;;;;;;;1.55;85.20;101963.88;4997656;28;20819;-73
2023/04/27 02:12:42;;;;;;;10.95;6.50;;;;;;;1.54;85.60;101961.22;5003150;28;20098;-72
2023/04/27 02:15:09;;;;;;;9.10;5.40;;;;;;;1.53;85.92;101965.56;5019293;28;20113;-72
2023/04/27 02:17:37;;;;;;;8.25;5.53;;;;;;;1.51;86.07;101964.63;4986466;28;20042;-72
2023/04/27 02:20:06;;;;;;;10.25;6.10;;;;;;;1.49;86.23;101957.63;5002340;28;20167;-71
2023/04/27 02:22:33;;;;;;;9.35;5.90;;;;;;;1.46;86.26;101953.25;4997694;28;20038;-72
2023/04/27 02:25:01;;;;;;;10.00;6.47;;;;;;;1.41;85.90;101961.78;4997137;28;20083;-72
2023/04/27 02:27:28;;;;;;;14.25;6.18;;;;;;;1.33;85.62;101952.03;4998644;28;20050;-72
2023/04/27 02:29:57;;;;;;;9.73;5.95;;;;;;;1.27;85.46;101948.44;5002228;28;20070;-72
2023/04/27 02:32:24;;;;;;;7.57;5.82;;;;;;;1.20;85.37;101953.44;4999340;28;20034;-72
2023/04/27 02:34:51;;;;;;;9.32;5.90;;;;;;;1.18;85.51;101954.25;4997738;28;20053;-72
2023/04/27 02:37:18;;;;;;;13.07;6.38;;;;;;;1.18;85.44;101954.25;4999219;28;20039;-72
2023/04/27 02:39:46;;;;;;;8.13;5.88;;;;;;;1.16;85.22;101950.72;5004837;28;20125;-72
2023/04/27 02:42:13;;;;;;;12.05;6.25;;;;;;;1.14;85.22;101942.91;5005217;28;20031;-72
2023/04/27 02:44:41;;;;;;;13.10;6.00;;;;;;;1.12;85.05;101952.38;5004296;28;20070;-71
2023/04/27 02:47:10;;;;;;;9.10;6.10;;;;;;;1.08;85.17;101943.63;5004302;28;20046;-71
2023/04/27 02:49:37;;;;;;;8.88;6.15;;;;;;;1.05;85.21;101943.53;4989762;28;20066;-71
2023/04/27 02:52:05;;;;;;;14.30;6.43;;;;;;;1.02;85.44;101937.38;5005576;28;20046;-71
2023/04/27 02:54:33;;;;;;;9.35;6.15;;;;;;;0.99;85.51;101938.19;5004132;28;20039;-71
2023/04/27 02:57:01;;;;;;;11.85;7.20;;;;;;;0.96;85.55;101932.03;5017785;28;20035;-71
2023/04/27 02:59:27;;;;;;;13.23;6.75;;;;;;;0.95;85.94;101935.47;5002746;28;20233;-72
2023/04/27 03:01:55;;;;;;;10.63;6.65;;;;;;;0.92;85.96;101931.94;5007173;28;20055;-72
2023/04/27 03:04:22;;;;;;;11.82;6.88;;;;;;;0.93;86.41;101938.00;5005379;28;20061;-72
2023/04/27 03:06:49;;;;;;;11.00;7.30;;;;;;;0.93;86.83;101943.19;5005136;28;20043;-73
2023/04/27 03:09:16;;;;;;;11.15;7.30;;;;;;;0.96;87.35;101945.88;4998312;28;20048;-73
2023/04/27 03:11:44;;;;;;;12.70;7.30;;;;;;;1.00;87.80;101939.94;5002744;28;20426;-73
2023/04/27 03:14:12;;;;;;;13.00;7.50;;;;;;;1.04;87.93;101949.56;4997409;28;20511;-73
2023/04/27 03:16:39;;;;;;;12.23;7.28;;;;;;;1.04;87.64;101935.72;4996752;28;20047;-73
2023/04/27 03:19:07;;;;;;;11.68;7.13;;;;;;;1.04;87.50;101940.91;4999564;28;20122;-73
2023/04/27 03:21:34;;;;;;;11.82;7.07;;;;;;;1.04;87.34;101938.31;5003472;28;20554;-74
2023/04/27 03:24:03;;;;;;;13.80;7.97;;;;;;;1.05;87.29;101947.84;5006637;28;20038;-73
2023/04/27 03:26:30;;;;;;;13.02;7.10;;;;;;;1.03;86.70;101941.75;4985624;28;20824;-72
2023/04/27 03:28:57;;;;;;;10.85;6.78;;;;;;;0.97;86.40;101945.03;4999008;28;20416;-74
2023/04/27 03:31:27;;;;;;;11.27;7.28;;;;;;;0.92;86.45;101944.03;5002478;28;20568;-72
2023/04/27 03:33:54;;;;;;;10.73;7.35;;;;;;;0.88;86.46;101939.59;5010214;28;20128;-71
2023/04/27 03:36:21;;;;;;;11.23;7.13;;;;;;;0.87;86.85;101943.03;4997036;28;20050;-72
2023/04/27 03:38:48;;;;;;;13.52;7.60;;;;;;;0.89;87.28;101949.16;4998660;28;20129;-72
2023/04/27 03:41:15;;;;;;;12.23;8.13;;;;;;;0.92;87.36;101947.53;4997119;28;20147;-72
2023/04/27 03:43:42;;;;;;;12.35;8.15;;;;;;;0.94;87.66;101947.56;5003942;28;20062;-71
2023/04/27 03:46:09;;;;;;;12.23;7.78;;;;;;;0.97;87.67;101950.25;5000760;28;20101;-72
2023/04/27 03:48:36;;;;;;;10.80;7.93;;;;;;;0.98;87.65;101958.91;4997479;28;20039;-72
2023/04/27 03:51:04;;;;;;;12.45;7.93;;;;;;;0.95;87.57;101959.69;4995355;28;20061;-72
2023/04/27 03:53:31;;;;;;;12.25;8.10;;;;;;;0.98;87.69;101966.69;4997718;28;20038;-71
2023/04/27 03:56:01;;;;;;;14.00;8.18;;;;;;;0.96;87.60;101965.78;4996158;28;20126;-71
2023/04/27 03:58:28;;;;;;;12.55;7.60;;;;;;;0.95;87.37;101969.22;4996931;28;20542;-71
2023/04/27 04:01:09;;;;;;;10.98;6.90;;;;;;;0.90;87.66;101964.78;4998154;28;20049;-71
2023/04/27 04:03:36;;;;;;;13.35;7.28;;;;;;;0.91;87.51;101970.84;4999161;28;20085;-71
2023/04/27 04:06:06;;;;;;;11.93;7.30;;;;;;;0.85;87.08;101974.16;5002352;28;20145;-71
2023/04/27 04:08:33;;;;;;;11.10;7.15;;;;;;;0.77;86.67;101968.75;5000026;28;20121;-71
2023/04/27 04:11:00;;;;;;;10.32;7.85;;;;;;;0.74;86.82;101967.78;4999832;28;20109;-72
2023/04/27 04:13:28;;;;;;;10.20;6.85;;;;;;;0.67;86.99;101977.09;4999245;28;20045;-72
2023/04/27 04:16:08;;;;;;;10.20;7.35;;;;;;;0.66;87.08;101969.28;5014334;28;20101;-72
2023/04/27 04:18:36;;;;;;;14.57;8.27;;;;;;;0.64;87.34;101973.56;4999227;28;20043;-72
2023/04/27 04:21:04;;;;;;;11.60;7.72;;;;;;;0.60;87.49;101970.84;5000031;28;20066;-71
2023/04/27 04:23:31;;;;;;;12.10;7.80;;;;;;;0.62;87.53;101978.69;5000778;28;20040;-71
2023/04/27 04:25:58;;;;;;;12.05;7.40;;;;;;;0.65;87.50;101983.09;4998914;28;20050;-71
2023/04/27 04:28:30;;;;;;;15.13;8.35;;;;;;;0.68;87.45;101985.75;4985654;28;20050;-71
2023/04/27 04:30:58;;;;;;;12.57;8.27;;;;;;;0.70;87.52;101981.50;5001825;28;20118;-72
2023/04/27 04:33:25;;;;;;;11.90;7.47;;;;;;;0.74;87.61;101985.97;5005816;28;20836;-71
2023/04/27 04:35:53;;;;;;;13.85;7.95;;;;;;;0.80;87.47;101982.66;4983841;28;20052;-72
2023/04/27 04:38:20;;;;;;;12.63;8.57;;;;;;;1.06;86.91;101986.84;4999226;28;20560;-69
2023/04/27 04:40:47;;;;;;;12.38;8.18;;;;;;;1.65;85.67;101980.56;4984104;28;20477;-71
2023/04/27 04:43:14;;;;;;;11.43;7.70;;;;;;;2.26;83.93;101982.00;5005841;28;20054;-71
2023/04/27 04:45:41;;;;;;;14.07;7.38;;;;;;;3.29;81.19;101991.03;5006097;28;20054;-71
2023/04/27 04:48:10;;;;;;;14.00;7.43;;;;;;;4.48;78.34;101992.00;5001595;28;20050;-71
2023/04/27 04:50:38;;;;;;;9.82;6.07;;;;;;;5.19;75.17;101986.75;5006106;28;20125;-72
2023/04/27 04:53:07;;;;;;;10.88;6.40;;;;;;;5.46;73.67;101991.34;5001240;28;20046;-72
2023/04/27 04:55:34;;;;;;;13.40;5.68;;;;;;;5.59;72.57;101993.22;5005763;28;20038;-72
2023/04/27 04:58:01;;;;;;;8.75;6.22;;;;;;;5.81;71.63;101997.75;5002773;28;20632;-70
2023/04/27 05:00:28;;;;;;;8.02;5.18;;;;;;;5.87;70.99;101996.06;5002927;28;20038;-71
2023/04/27 05:02:55;;;;;;;8.80;5.28;;;;;;;5.94;70.43;101993.53;5006742;28;20141;-70
2023/04/27 05:05:22;;;;;;;10.00;5.45;;;;;;;5.96;71.08;101999.63;5006287;28;20494;-71
2023/04/27 05:07:49;;;;;;;12.60;5.82;;;;;;;6.61;72.65;101997.44;5007901;28;20824;-69
2023/04/27 05:10:16;;;;;;;10.55;4.97;;;;;;;7.28;71.25;101998.53;5003602;28;20054;-69
2023/04/27 05:12:43;;;;;;;6.97;4.63;;;;;;;8.24;70.82;101991.50;5005696;28;20046;-70
2023/04/27 05:15:10;;;;;;;7.55;4.65;;;;;;;9.02;67.13;101997.38;5004457;28;20050;-70
2023/04/27 05:17:37;;;;;;;7.85;5.20;;;;;;;9.85;61.85;102000.31;5001017;28;20037;-68
2023/04/27 05:20:08;;;;;;;10.13;5.30;;;;;;;10.67;60.06;101996.88;5005229;28;20042;-68
2023/04/27 05:22:36;;;;;;;8.82;4.43;;;;;;;11.67;56.46;101992.84;5004053;28;20045;-70
2023/04/27 05:25:03;;;;;;;9.35;4.55;;;;;;;12.68;53.53;101990.09;5022657;28;20042;-70
2023/04/27 05:27:30;;;;;;;10.50;4.63;;;;;;;13.46;51.01;101996.38;5008431;28;20136;-68
2023/04/27 05:29:57;;;;;;;9.60;4.32;;;;;;;13.91;49.51;101988.16;5007719;28;20043;-69
2023/04/27 05:32:24;;;;;;;6.57;4.40;;;;;;;13.87;48.65;101983.88;4998651;28;20048;-68
2023/04/27 05:34:56;;;;;;;8.02;4.03;;;;;;;14.25;47.86;101975.75;5004497;28;20041;-69
2023/04/27 05:37:23;;;;;;;6.60;4.20;;;;;;;14.65;46.66;101973.78;5005212;28;20089;-69
2023/04/27 05:39:50;;;;;;;10.40;4.80;;;;;;;14.04;46.71;101982.53;4998786;28;20716;-69
2023/04/27 05:42:19;;;;;;;7.95;4.30;;;;;;;13.98;46.26;101978.25;5001042;28;20038;-69
2023/04/27 05:44:46;;;;;;;10.60;4.60;;;;;;;12.78;47.12;101987.25;5004217;28;20050;-69
2023/04/27 05:47:13;;;;;;;6.35;4.10;;;;;;;10.93;51.26;101995.66;4999735;28;20050;-69
2023/04/27 05:49:40;;;;;;;7.90;5.22;;;;;;;9.51;54.32;101995.34;4999781;28;20625;-70
2023/04/27 05:52:07;;;;;;;11.63;5.55;;;;;;;8.60;57.30;101995.84;5000437;28;20538;-70
2023/04/27 05:54:34;;;;;;;10.10;6.88;;;;;;;7.87;59.05;102002.06;5005188;28;20108;-70
2023/04/27 05:57:01;;;;;;;10.07;6.05;;;;;;;7.33;61.00;102006.41;5000245;28;20041;-69
2023/04/27 05:59:28;;;;;;;9.38;5.78;;;;;;;6.93;62.75;101999.31;5007257;28;20046;-69
2023/04/27 06:01:55;;;;;;;12.50;6.30;;;;;;;6.66;64.10;102008.84;5003588;28;20038;-69
2023/04/27 06:04:23;;;;;;;11.10;6.68;;;;;;;6.48;64.86;102004.38;4998470;28;20050;-69
2023/04/27 06:06:50;;;;;;;14.95;7.18;;;;;;;6.32;65.96;101999.03;5004767;28;20120;-68
2023/04/27 06:09:17;;;;;;;11.90;6.95;;;;;;;6.25;66.59;102001.63;5003024;28;20053;-69
2023/04/27 06:11:46;;;;;;;11.20;6.47;;;;;;;6.20;66.81;102005.06;4999984;28;20042;-69
2023/04/27 06:14:13;;;;;;;14.25;7.55;;;;;;;6.16;67.38;102011.16;4995011;28;20067;-68
2023/04/27 06:16:40;;;;;;;11.90;6.57;;;;;;;6.10;67.50;102003.25;5004010;28;20613;-68
2023/04/27 06:19:07;;;;;;;10.52;6.78;;;;;;;6.02;67.50;102003.19;5002731;28;20118;-68
2023/04/27 06:21:35;;;;;;;9.98;7.00;;;;;;;5.99;68.10;102008.44;4998467;28;20038;-69
2023/04/27 06:24:05;;;;;;;10.13;6.47;;;;;;;5.99;67.89;102005.81;5002332;28;20538;-68
2023/04/27 06:26:32;;;;;;;9.82;6.82;;;;;;;6.02;68.53;101999.72;5002358;28;20244;-68
2023/04/27 06:28:59;;;;;;;10.95;7.10;;;;;;;6.05;68.40;102003.22;4984689;28;20047;-68
2023/04/27 06:31:26;;;;;;;12.30;6.82;;;;;;;6.08;68.91;101994.50;5002716;28;20043;-68
2023/04/27 06:33:54;;;;;;;15.43;6.43;;;;;;;6.13;69.45;101997.16;5001959;28;20563;-69
2023/04/27 06:36:21;;;;;;;8.23;5.45;;;;;;;6.18;69.45;101996.31;4987699;28;20038;-68
2023/04/27 06:38:48;;;;;;;8.63;4.78;;;;;;;6.28;69.08;101994.66;5001758;28;20070;-69
2023/04/27 06:41:15;;;;;;;8.82;5.18;;;;;;;6.35;67.92;101996.44;4996638;28;20038;-69
2023/04/27 06:43:42;;;;;;;12.02;5.18;;;;;;;6.41;68.40;102007.81;4985244;28;20042;-69
2023/04/27 06:46:09;;;;;;;6.60;4.85;;;;;;;6.52;67.99;101998.25;5002700;28;20043;-69
2023/04/27 06:48:36;;;;;;;7.28;4.45;;;;;;;6.65;68.05;102001.84;5001823;28;20038;-69
2023/04/27 06:51:04;;;;;;;8.27;4.47;;;;;;;6.73;67.28;102004.47;5003455;28;20074;-68
2023/04/27 06:53:31;;;;;;;10.82;5.15;;;;;;;6.79;67.45;101996.66;4999264;28;20835;-70
2023/04/27 06:55:58;;;;;;;6.75;3.92;;;;;;;6.91;67.78;101999.31;5000593;28;20542;-69
2023/04/27 06:58:26;;;;;;;6.97;4.10;;;;;;;7.05;67.18;102001.09;4996470;28;20039;-69
2023/04/27 07:00:53;;;;;;;9.20;3.83;;;;;;;7.15;66.70;101997.63;4995209;28;20526;-69
2023/04/27 07:03:21;;;;;;;7.97;4.15;;;;;;;7.25;65.91;101999.41;4990097;28;20100;-69
2023/04/27 07:05:50;;;;;;;6.22;3.90;;;;;;;7.34;65.57;101995.03;5003203;28;20042;-69
2023/04/27 07:08:17;;;;;;;7.30;3.75;;;;;;;7.42;65.81;101998.56;4997784;28;20039;-69
2023/04/27 07:10:46;;;;;;;10.23;3.88;;;;;;;7.52;65.64;101992.47;5005957;28;20126;-69
2023/04/27 07:13:13;;;;;;;10.30;3.50;;;;;;;7.66;65.57;102002.97;5000745;28;20039;-67
2023/04/27 07:15:40;;;;;;;6.53;3.53;;;;;;;7.77;63.83;101988.09;5002706;28;20581;-69
2023/04/27 07:18:07;;;;;;;8.60;3.53;;;;;;;7.92;63.64;101992.47;4998547;28;20645;-69
2023/04/27 07:20:37;;;;;;;8.57;3.00;;;;;;;8.01;63.47;101994.19;5005004;28;20716;-69
2023/04/27 07:23:04;;;;;;;4.40;3.20;;;;;;;8.15;62.47;101991.53;4989267;28;20046;-68
2023/04/27 07:25:31;;;;;;;6.20;3.10;;;;;;;8.27;61.98;101995.00;5011102;28;20133;-69
2023/04/27 07:27:58;;;;;;;9.57;3.30;;;;;;;8.35;61.72;101995.88;4986845;28;20050;-69
2023/04/27 07:30:29;;;;;;;6.18;3.20;;;;;;;8.46;61.90;101993.22;5006178;28;20039;-70
2023/04/27 07:32:56;;;;;;;6.32;3.42;;;;;;;8.58;61.92;101992.34;5004614;28;20908;-69
2023/04/27 07:35:23;;;;;;;5.40;2.50;;;;;;;8.75;58.67;101994.91;5006105;28;20100;-69
2023/04/27 07:37:51;;;;;;;5.60;2.70;;;;;;;8.81;59.29;101994.84;5005890;28;20054;-70
2023/04/27 07:40:18;;;;;;;5.32;2.50;;;;;;;8.93;58.50;102000.06;5009671;28;20042;-70
2023/04/27 07:42:45;;;;;;;6.93;2.70;;;;;;;9.00;57.35;101999.16;5009483;28;20153;-69
2023/04/27 07:45:12;;;;;;;5.72;2.55;;;;;;;9.06;57.33;101992.97;5004335;28;20124;-70
2023/04/27 07:47:39;;;;;;;7.18;2.75;;;;;;;9.17;55.53;101987.69;5006615;28;20045;-69
2023/04/27 07:50:07;;;;;;;4.30;2.25;;;;;;;9.24;55.96;101988.53;5004573;28;20750;-69
2023/04/27 07:52:36;;;;;;;4.95;2.13;;;;;;;9.31;54.87;101987.59;4996797;28;20046;-70
2023/04/27 07:55:03;;;;;;;4.68;2.10;;;;;;;9.42;53.35;101987.50;5009135;28;20038;-69
2023/04/27 07:57:30;;;;;;;4.82;2.28;;;;;;;9.47;53.17;101978.69;5007974;28;20030;-69
2023/04/27 07:59:57;;;;;;;6.63;2.75;;;;;;;9.52;53.38;101985.69;5010102;28;20030;-70
2023/04/27 08:02:30;;;;;;;12.02;2.83;;;;;;;9.66;54.49;101980.31;4999129;28;20494;-69
2023/04/27 08:04:57;;;;;;;4.72;1.90;;;;;;;9.77;53.44;101981.09;4998699;28;20086;-69
2023/04/27 08:07:25;;;;;;;4.65;2.20;;;;;;;9.90;52.96;101973.94;5008752;28;20065;-70
2023/04/27 08:09:53;;;;;;;4.15;2.22;;;;;;;10.00;53.89;101985.28;5007845;28;20165;-69
2023/04/27 08:12:20;;;;;;;5.13;2.47;;;;;;;10.09;53.82;101980.78;5008258;28;20137;-70
2023/04/27 08:14:48;;;;;;;17.67;3.22;;;;;;;10.20;54.28;101985.97;5008385;28;20880;-70
2023/04/27 08:17:16;;;;;;;6.50;2.22;;;;;;;10.31;52.81;101979.69;5008296;28;20046;-70
2023/04/27 08:19:44;;;;;;;7.07;2.70;;;;;;;10.44;52.58;101985.72;5007929;28;20050;-70
2023/04/27 08:22:11;;;;;;;9.02;2.80;;;;;;;10.56;52.02;101981.19;4991938;28;20716;-70
2023/04/27 08:24:38;;;;;;;7.60;2.95;;;;;;;10.68;50.46;101987.19;5009544;28;20046;-70
2023/04/27 08:27:06;;;;;;;5.90;2.47;;;;;;;10.79;50.12;101980.03;5006044;28;20043;-70
2023/04/27 08:29:33;;;;;;;7.43;2.83;;;;;;;10.85;49.38;101981.72;5009347;28;20584;-70
2023/04/27 08:32:04;;;;;;;11.18;3.72;;;;;;;10.96;50.83;101986.81;5006566;28;20074;-70
2023/04/27 08:34:32;;;;;;;10.93;3.10;;;;;;;11.10;50.54;101990.16;5007829;28;20042;-70
2023/04/27 08:37:01;;;;;;;6.55;2.90;;;;;;;11.23;50.56;101996.13;5008714;28;20113;-70
2023/04/27 08:39:28;;;;;;;7.05;2.50;;;;;;;11.30;50.36;101989.84;5007010;28;20030;-70
2023/04/27 08:41:56;;;;;;;5.65;2.95;;;;;;;11.37;48.68;101992.44;5007064;28;20514;-70
2023/04/27 08:44:23;;;;;;;8.93;3.20;;;;;;;11.40;46.88;101987.06;4999874;28;20093;-70
2023/04/27 08:46:51;;;;;;;5.55;2.45;;;;;;;11.37;48.60;101984.50;4992413;28;20104;-70
2023/04/27 08:49:19;;;;;;;6.72;3.20;;;;;;;11.49;50.32;101981.69;5008143;28;20093;-70
2023/04/27 08:51:46;;;;;;;6.35;2.97;;;;;;;11.72;49.87;101977.75;5008521;28;20050;-70
2023/04/27 08:54:14;;;;;;;6.22;2.60;;;;;;;11.85;47.64;101975.81;5002554;28;20101;-70
2023/04/27 08:56:41;;;;;;;7.30;3.05;;;;;;;11.93;48.32;101968.59;5015343;28;20538;-70
2023/04/27 08:59:16;;;;;;;10.63;3.03;;;;;;;12.06;47.55;101971.94;5006671;28;20526;-70
2023/04/27 09:01:47;;;;;;;4.72;2.70;;;;;;;12.10;45.19;101969.19;5004087;28;20043;-70
2023/04/27 09:04:16;;;;;;;5.78;2.75;;;;;;;12.07;45.05;101955.16;5007771;28;20048;-70
2023/04/27 09:06:44;;;;;;;5.38;2.72;;;;;;;12.04;44.34;101973.72;5007365;28;20253;-69
2023/04/27 09:09:22;;;;;;;6.38;2.67;;;;;;;11.96;45.52;101965.88;5007327;28;20038;-70
2023/04/27 09:11:50;;;;;;;6.53;2.58;;;;;;;12.04;43.97;101963.16;4999166;28;20038;-70
2023/04/27 09:14:23;;;;;;;3.20;2.42;;;;;;;12.05;43.40;101956.97;5007065;28;20515;-70
2023/04/27 09:16:58;;;;;;;6.43;2.70;;;;;;;12.04;44.21;101968.44;4992725;28;20144;-70
2023/04/27 09:19:29;;;;;;;5.75;2.88;;;;;;;12.06;45.48;101967.50;5013524;28;20049;-70
2023/04/27 09:22:09;;;;;;;6.68;2.63;;;;;;;12.25;45.54;101962.75;5015048;28;20047;-70
2023/04/27 09:24:37;;;;;;;7.07;2.88;;;;;;;12.39;42.33;101964.25;5006196;28;20066;-70
2023/04/27 09:27:07;;;;;;;4.03;2.55;;;;;;;12.41;43.10;101962.47;4998567;28;20031;-70
2023/04/27 09:29:37;;;;;;;6.72;2.45;;;;;;;12.49;42.47;101959.63;4997753;28;20034;-69
2023/04/27 09:32:19;;;;;;;8.85;2.55;;;;;;;12.48;42.48;101963.19;5007059;28;20061;-70
2023/04/27 09:34:47;;;;;;;7.05;2.83;;;;;;;12.48;42.95;101955.25;5013671;28;20038;-69
2023/04/27 09:37:15;;;;;;;8.15;2.80;;;;;;;12.48;42.02;101945.56;5027663;28;20522;-70
2023/04/27 09:39:44;;;;;;;6.03;2.58;;;;;;;12.47;42.14;101942.91;4998506;28;20039;-70
2023/04/27 09:42:12;;;;;;;5.75;2.80;;;;;;;12.58;41.53;101959.44;5006358;28;20042;-70
2023/04/27 09:44:39;;;;;;;5.47;2.53;;;;;;;12.58;39.92;101949.75;5007265;28;20039;-70
2023/04/27 09:47:06;;;;;;;4.70;2.25;;;;;;;12.50;40.82;101945.50;5007924;28;20042;-70
2023/04/27 09:49:34;;;;;;;4.53;2.47;;;;;;;12.45;40.21;101940.31;5005987;28;20042;-71
2023/04/27 09:52:01;;;;;;;4.53;2.50;;;;;;;12.55;39.90;101948.94;5006408;28;20046;-70
2023/04/27 09:54:33;;;;;;;3.78;1.80;;;;;;;12.55;39.60;101943.66;5006999;28;20034;-70
2023/04/27 09:57:37;;;;;;;4.40;2.40;;;;;;;12.60;38.75;101940.91;4996487;28;20069;-70
2023/04/27 10:00:25;;;;;;;4.15;2.25;;;;;;;12.57;39.88;101932.13;5006109;28;20046;-70
2023/04/27 10:03:19;;;;;;;5.20;2.20;;;;;;;12.77;40.92;101935.25;4997899;28;20042;-70
2023/04/27 10:06:09;;;;;;;5.63;2.28;;;;;;;12.95;39.68;101934.84;5003611;28;20043;-70
2023/04/27 10:08:38;;;;;;;7.30;2.40;;;;;;;12.98;39.52;101928.59;5007042;28;20093;-70
2023/04/27 10:11:21;;;;;;;4.90;2.20;;;;;;;13.04;39.38;101924.03;5002826;28;20575;-70
2023/04/27 10:13:54;;;;;;;4.30;2.13;;;;;;;13.08;39.89;101919.53;4998532;28;20050;-70
2023/04/27 10:16:21;;;;;;;3.97;2.35;;;;;;;13.12;40.04;101928.28;5003257;28;20256;-70
2023/04/27 10:18:55;;;;;;;5.55;2.80;;;;;;;13.17;40.24;101927.25;4999214;28;20042;-70
2023/04/27 10:21:22;;;;;;;5.53;2.70;;;;;;;13.23;40.45;101930.69;5005272;28;20046;-70
2023/04/27 10:23:51;;;;;;;6.18;2.70;;;;;;;13.26;39.90;101943.81;5005727;28;20041;-70
2023/04/27 10:26:26;;;;;;;4.85;2.53;;;;;;;13.34;39.08;101934.81;5003877;28;20035;-70
2023/04/27 10:29:14;;;;;;;6.18;2.70;;;;;;;13.40;40.30;101925.88;4996942;28;20606;-70
2023/04/27 10:31:47;;;;;;;3.03;2.47;;;;;;;13.51;39.56;101923.81;5003487;28;20042;-70
2023/04/27 10:34:17;;;;;;;6.93;3.05;;;;;;;13.60;39.10;101921.84;5001348;28;20039;-70
2023/04/27 10:36:47;;;;;;;4.03;2.47;;;;;;;13.70;38.77;101933.94;4999863;28;20046;-70
2023/04/27 10:39:21;;;;;;;3.33;2.58;;;;;;;13.65;37.25;101923.47;5002827;28;20054;-70
2023/04/27 10:41:58;;;;;;;5.43;2.60;;;;;;;13.58;37.09;101921.00;4994746;28;20030;-70
2023/04/27 10:44:31;;;;;;;5.50;2.80;;;;;;;13.54;37.79;101916.69;5005358;28;20145;-70
2023/04/27 10:47:16;;;;;;;4.70;2.53;;;;;;;13.58;37.84;101918.34;5014682;28;20046;-70
2023/04/27 10:49:43;;;;;;;5.07;2.35;;;;;;;13.58;37.02;101919.22;5003926;28;20046;-70
2023/04/27 10:52:10;;;;;;;7.07;2.80;;;;;;;13.62;37.04;101920.88;5006376;28;20051;-70
2023/04/27 10:54:38;;;;;;;4.90;2.90;;;;;;;13.66;37.69;101929.63;5000044;28;20053;-70
2023/04/27 10:57:10;;;;;;;4.00;2.90;;;;;;;13.70;36.04;101922.47;5002505;28;20046;-70
2023/04/27 10:59:54;;;;;;;5.53;2.67;;;;;;;13.74;35.38;101927.63;5003834;28;20133;-70
2023/04/27 11:02:27;;;;;;;3.72;2.20;;;;;;;13.75;36.10;101918.78;4996518;28;20050;-70
2023/04/27 11:04:55;;;;;;;5.13;2.83;;;;;;;13.90;36.67;101911.34;5002916;28;20041;-70
2023/04/27 11:07:27;;;;;;;6.57;2.70;;;;;;;14.03;36.58;101909.22;5001406;28;20137;-70
2023/04/27 11:09:55;;;;;;;5.25;2.72;;;;;;;14.12;36.36;101907.19;5001725;28;20035;-70
2023/04/27 11:12:22;;;;;;;4.65;3.00;;;;;;;14.21;35.38;101898.06;5004434;28;20038;-70
2023/04/27 11:14:57;;;;;;;5.55;2.92;;;;;;;14.16;35.12;101900.00;5008003;28;20166;-69
2023/04/27 11:17:31;;;;;;;4.55;2.83;;;;;;;14.07;35.65;101894.97;4989461;28;20034;-70
2023/04/27 11:19:58;;;;;;;5.78;2.60;;;;;;;14.02;36.59;101891.56;5004755;28;20158;-71
2023/04/27 11:22:26;;;;;;;4.55;2.95;;;;;;;14.11;36.00;101886.88;5003897;28;20751;-70
2023/04/27 11:24:53;;;;;;;4.35;2.80;;;;;;;14.28;35.96;101888.16;5004695;28;20078;-70
2023/04/27 11:27:22;;;;;;;4.55;3.10;;;;;;;14.29;35.02;101889.91;5004854;28;20161;-70
2023/04/27 11:29:49;;;;;;;4.55;3.28;;;;;;;14.22;35.70;101878.59;5004858;28;20042;-70
2023/04/27 11:32:24;;;;;;;5.82;2.90;;;;;;;14.20;35.44;101876.91;5006213;28;20454;-70
2023/04/27 11:34:53;;;;;;;4.60;3.00;;;;;;;14.20;36.24;101874.25;5003621;28;20089;-70